createdAt,value
2022-10-26T00:00:09.492Z,99.99
2022-10-26T00:01:09.571Z,99.99
2022-10-26T00:02:09.561Z,99.99
2022-10-26T00:03:09.442Z,99.99
2022-10-26T00:04:09.441Z,99.99
2022-10-26T00:05:09.422Z,99.99
2022-10-26T00:06:09.431Z,99.99
2022-10-26T00:07:09.410Z,99.99
2022-10-26T00:08:09.390Z,99.99
2022-10-26T00:09:09.360Z,99.99
2022-10-26T00:10:09.365Z,99.99
2022-10-26T00:11:09.328Z,99.99
2022-10-26T00:12:09.352Z,99.99
2022-10-26T00:13:09.348Z,99.99
2022-10-26T00:14:09.302Z,99.99
2022-10-26T00:15:09.321Z,99.99
2022-10-26T00:16:09.276Z,99.99
2022-10-26T00:17:09.259Z,99.99
2022-10-26T00:18:09.292Z,99.99
2022-10-26T00:19:09.244Z,99.99
2022-10-26T00:20:09.232Z,99.99
2022-10-26T00:21:09.198Z,99.99
2022-10-26T00:22:09.200Z,99.99
2022-10-26T00:23:09.175Z,99.99
2022-10-26T00:24:09.205Z,99.99
2022-10-26T00:25:09.190Z,99.99
2022-10-26T00:26:09.124Z,99.99
2022-10-26T00:27:09.139Z,99.99
2022-10-26T00:28:09.132Z,99.99
2022-10-26T00:29:09.118Z,99.99
2022-10-26T00:30:09.090Z,99.99
2022-10-26T00:31:09.071Z,99.99
2022-10-26T00:32:09.084Z,99.99
2022-10-26T00:33:09.028Z,99.99
2022-10-26T00:34:09.052Z,99.99
2022-10-26T00:35:21.201Z,99.99
2022-10-26T00:36:10.018Z,99.99
2022-10-26T00:37:08.997Z,99.99
2022-10-26T00:38:08.993Z,99.99
2022-10-26T00:39:08.945Z,99.99
2022-10-26T00:40:08.940Z,99.99
2022-10-26T00:41:08.935Z,99.99
2022-10-26T00:42:08.949Z,99.99
2022-10-26T00:43:08.920Z,99.99
2022-10-26T00:44:08.900Z,99.99
2022-10-26T00:45:08.876Z,99.99
2022-10-26T00:46:08.868Z,99.99
2022-10-26T00:47:08.879Z,99.99
2022-10-26T00:48:08.861Z,99.99
2022-10-26T00:49:08.870Z,99.99
2022-10-26T00:50:08.862Z,99.99
2022-10-26T00:51:08.796Z,99.99
2022-10-26T00:52:08.795Z,99.99
2022-10-26T00:53:08.798Z,99.99
2022-10-26T00:54:08.771Z,99.99
2022-10-26T00:55:08.739Z,99.99
2022-10-26T00:56:08.729Z,99.99
2022-10-26T00:57:08.758Z,99.99
2022-10-26T00:58:08.727Z,99.99
2022-10-26T00:59:08.698Z,99.99
2022-10-26T01:00:08.678Z,99.99
2022-10-26T01:01:08.668Z,99.99
2022-10-26T01:02:08.665Z,99.99
2022-10-26T01:03:08.629Z,99.99
2022-10-26T01:04:08.668Z,99.99
2022-10-26T01:05:08.627Z,99.99
2022-10-26T01:06:08.601Z,99.99
2022-10-26T01:07:08.560Z,99.99
2022-10-26T01:08:08.579Z,99.99
2022-10-26T01:09:08.523Z,99.99
2022-10-26T01:10:08.540Z,99.99
2022-10-26T01:11:08.567Z,99.99
2022-10-26T01:12:08.556Z,99.99
2022-10-26T01:13:08.486Z,99.99
2022-10-26T01:14:08.479Z,99.99
2022-10-26T01:15:08.453Z,99.99
2022-10-26T01:16:08.475Z,99.99
2022-10-26T01:17:08.422Z,99.99
2022-10-26T01:18:08.440Z,99.99
2022-10-26T01:19:08.427Z,99.99
2022-10-26T01:20:08.386Z,99.99
2022-10-26T01:21:08.389Z,99.99
2022-10-26T01:22:08.350Z,99.99
2022-10-26T01:23:08.358Z,99.99
2022-10-26T01:24:08.322Z,99.99
2022-10-26T01:25:08.320Z,99.99
2022-10-26T01:26:08.334Z,99.99
2022-10-26T01:27:08.319Z,99.99
2022-10-26T01:28:08.277Z,99.99
2022-10-26T01:29:08.262Z,99.99
2022-10-26T01:30:08.263Z,99.99
2022-10-26T01:31:08.247Z,99.99
2022-10-26T01:32:08.214Z,99.99
2022-10-26T01:33:08.219Z,99.99
2022-10-26T01:34:08.194Z,99.99
2022-10-26T01:35:08.179Z,99.99
2022-10-26T01:36:08.144Z,99.99
2022-10-26T01:37:08.139Z,99.99
2022-10-26T01:38:08.156Z,99.99
2022-10-26T01:39:08.099Z,99.99
2022-10-26T01:40:08.129Z,99.99
2022-10-26T01:41:08.076Z,99.99
2022-10-26T01:42:08.076Z,99.99
2022-10-26T01:43:08.084Z,99.99
2022-10-26T01:44:08.078Z,99.99
2022-10-26T01:45:08.051Z,99.99
2022-10-26T01:46:08.118Z,99.99
2022-10-26T01:47:08.003Z,99.99
2022-10-26T01:48:07.973Z,99.99
2022-10-26T01:49:09.084Z,99.99
2022-10-26T01:50:07.997Z,99.99
2022-10-26T01:51:07.956Z,99.99
2022-10-26T01:52:07.936Z,99.99
2022-10-26T01:53:07.897Z,99.99
2022-10-26T01:54:07.912Z,99.99
2022-10-26T01:55:07.884Z,99.99
2022-10-26T01:56:07.866Z,99.99
2022-10-26T01:57:07.904Z,99.99
2022-10-26T01:58:07.856Z,99.99
2022-10-26T01:59:07.836Z,99.99
2022-10-26T02:00:07.871Z,99.99
2022-10-26T02:01:07.864Z,99.99
2022-10-26T02:02:07.811Z,99.99
2022-10-26T02:03:07.801Z,99.99
2022-10-26T02:04:07.803Z,99.99
2022-10-26T02:05:07.724Z,99.99
2022-10-26T02:06:07.760Z,99.99
2022-10-26T02:07:07.726Z,99.99
2022-10-26T02:08:07.698Z,99.99
2022-10-26T02:09:17.693Z,99.99
2022-10-26T02:10:07.728Z,99.99
2022-10-26T02:11:07.800Z,99.99
2022-10-26T02:12:07.737Z,99.99
2022-10-26T02:13:07.649Z,99.99
2022-10-26T02:14:07.682Z,99.99
2022-10-26T02:15:07.614Z,99.99
2022-10-26T02:16:07.632Z,99.99
2022-10-26T02:17:07.566Z,99.99
2022-10-26T02:18:07.551Z,99.99
2022-10-26T02:19:07.715Z,99.99
2022-10-26T02:20:07.562Z,99.99
2022-10-26T02:21:07.551Z,99.99
2022-10-26T02:22:07.547Z,99.99
2022-10-26T02:23:07.505Z,99.99
2022-10-26T02:25:07.475Z,99.99
2022-10-26T02:26:07.450Z,99.99
2022-10-26T02:27:07.540Z,99.99
2022-10-26T02:28:07.553Z,99.99
2022-10-26T02:29:07.424Z,99.99
2022-10-26T02:30:07.371Z,99.99
2022-10-26T02:31:07.365Z,99.99
2022-10-26T02:32:07.406Z,99.99
2022-10-26T02:33:07.345Z,99.99
2022-10-26T02:34:07.327Z,99.99
2022-10-26T02:35:07.372Z,99.99
2022-10-26T02:36:07.298Z,99.99
2022-10-26T02:37:07.332Z,99.99
2022-10-26T02:38:07.304Z,99.99
2022-10-26T02:39:07.287Z,99.99
2022-10-26T02:40:07.322Z,99.99
2022-10-26T02:41:07.485Z,99.99
2022-10-26T02:42:07.439Z,99.99
2022-10-26T02:43:07.213Z,99.99
2022-10-26T02:44:07.226Z,99.99
2022-10-26T02:45:07.178Z,99.99
2022-10-26T02:46:07.173Z,99.99
2022-10-26T02:47:07.136Z,99.99
2022-10-26T02:48:07.158Z,99.99
2022-10-26T02:49:07.366Z,99.99
2022-10-26T02:50:07.260Z,99.99
2022-10-26T02:51:07.306Z,99.99
2022-10-26T02:52:07.083Z,99.99
2022-10-26T02:53:07.090Z,99.99
2022-10-26T02:54:07.063Z,99.99
2022-10-26T02:55:07.040Z,99.99
2022-10-26T02:56:07.001Z,99.99
2022-10-26T02:57:07.051Z,99.99
2022-10-26T02:58:07.011Z,99.99
2022-10-26T02:59:06.962Z,99.99
2022-10-26T03:00:07.055Z,99.99
2022-10-26T03:01:07.053Z,99.99
2022-10-26T03:02:07.013Z,99.99
2022-10-26T03:03:07.027Z,99.99
2022-10-26T03:04:07.012Z,99.99
2022-10-26T03:05:06.946Z,99.99
2022-10-26T03:06:07.141Z,99.99
2022-10-26T03:07:06.887Z,99.99
2022-10-26T03:08:06.874Z,99.99
2022-10-26T03:09:06.909Z,99.99
2022-10-26T03:10:06.890Z,99.99
2022-10-26T03:11:07.103Z,99.99
2022-10-26T03:12:06.794Z,99.99
2022-10-26T03:13:06.804Z,99.99
2022-10-26T03:14:07.023Z,99.99
2022-10-26T03:15:06.754Z,99.99
2022-10-26T03:16:06.783Z,99.99
2022-10-26T03:17:06.757Z,99.99
2022-10-26T03:18:06.855Z,99.99
2022-10-26T03:19:06.697Z,99.99
2022-10-26T03:20:06.710Z,99.99
2022-10-26T03:21:06.768Z,99.99
2022-10-26T03:22:06.669Z,99.99
2022-10-26T03:23:19.131Z,99.99
2022-10-26T03:24:06.640Z,99.99
2022-10-26T03:26:06.691Z,99.99
2022-10-26T03:27:06.592Z,99.99
2022-10-26T03:28:06.649Z,99.99
2022-10-26T03:29:06.607Z,99.99
2022-10-26T03:30:06.597Z,99.99
2022-10-26T03:31:06.555Z,99.99
2022-10-26T03:32:06.543Z,99.99
2022-10-26T03:33:06.556Z,99.99
2022-10-26T03:34:06.583Z,99.99
2022-10-26T03:35:06.530Z,99.99
2022-10-26T03:36:06.596Z,99.99
2022-10-26T03:37:06.440Z,99.99
2022-10-26T03:38:06.663Z,99.99
2022-10-26T03:39:06.498Z,99.99
2022-10-26T03:40:06.632Z,99.99
2022-10-26T03:41:06.562Z,99.99
2022-10-26T03:42:06.510Z,99.99
2022-10-26T03:43:06.493Z,99.99
2022-10-26T03:44:06.467Z,99.99
2022-10-26T03:45:06.408Z,99.99
2022-10-26T03:46:06.363Z,99.99
2022-10-26T03:47:06.407Z,99.99
2022-10-26T03:48:06.379Z,99.99
2022-10-26T03:49:06.420Z,99.99
2022-10-26T03:51:06.339Z,99.99
2022-10-26T03:52:06.544Z,99.99
2022-10-26T03:53:07.864Z,99.99
2022-10-26T03:54:06.263Z,99.99
2022-10-26T03:55:06.219Z,99.99
2022-10-26T03:56:06.279Z,99.99
2022-10-26T03:57:06.200Z,99.99
2022-10-26T03:58:06.364Z,99.99
2022-10-26T03:59:06.150Z,99.99
2022-10-26T04:00:06.117Z,99.99
2022-10-26T04:01:06.129Z,99.99
2022-10-26T04:02:06.062Z,99.99
2022-10-26T04:03:06.142Z,99.99
2022-10-26T04:04:06.187Z,99.99
2022-10-26T04:05:06.049Z,99.99
2022-10-26T04:06:06.043Z,99.99
2022-10-26T04:07:06.035Z,99.99
2022-10-26T04:08:05.992Z,99.99
2022-10-26T04:09:06.007Z,99.99
2022-10-26T04:10:05.969Z,99.99
2022-10-26T04:11:05.945Z,99.99
2022-10-26T04:12:05.964Z,99.99
2022-10-26T04:13:05.941Z,99.99
2022-10-26T04:14:05.926Z,99.99
2022-10-26T04:15:05.887Z,99.99
2022-10-26T04:16:05.910Z,99.99
2022-10-26T04:17:05.856Z,99.99
2022-10-26T04:21:35.618Z,99.99
2022-10-26T04:22:35.849Z,99.99
2022-10-26T04:23:35.636Z,99.99
2022-10-26T04:24:35.565Z,99.99
2022-10-26T04:25:35.592Z,99.99
2022-10-26T04:26:35.525Z,99.99
2022-10-26T04:27:35.520Z,99.99
2022-10-26T04:28:35.525Z,99.99
2022-10-26T04:29:35.462Z,99.99
2022-10-26T04:30:35.462Z,99.99
2022-10-26T04:31:35.453Z,99.99
2022-10-26T04:32:35.441Z,99.99
2022-10-26T04:33:35.449Z,99.99
2022-10-26T04:34:35.425Z,99.99
2022-10-26T04:35:35.364Z,99.99
2022-10-26T04:36:35.385Z,99.99
2022-10-26T04:37:35.358Z,99.99
2022-10-26T04:38:35.371Z,99.99
2022-10-26T04:39:35.338Z,99.99
2022-10-26T04:40:35.328Z,99.99
2022-10-26T04:41:35.313Z,99.99
2022-10-26T04:42:35.300Z,99.99
2022-10-26T04:43:35.286Z,99.99
2022-10-26T04:44:35.305Z,99.99
2022-10-26T04:45:35.256Z,99.99
2022-10-26T04:46:35.218Z,99.99
2022-10-26T04:47:35.185Z,99.99
2022-10-26T04:48:35.194Z,99.99
2022-10-26T04:49:35.171Z,99.99
2022-10-26T04:50:35.176Z,99.99
2022-10-26T04:51:35.142Z,99.99
2022-10-26T04:52:35.160Z,99.99
2022-10-26T04:53:35.110Z,99.99
2022-10-26T04:54:35.100Z,99.99
2022-10-26T04:55:35.076Z,99.99
2022-10-26T04:56:35.156Z,99.99
2022-10-26T04:57:35.086Z,99.99
2022-10-26T04:58:35.030Z,99.99
2022-10-26T04:59:35.035Z,99.99
2022-10-26T05:00:35.032Z,99.99
2022-10-26T05:01:35.113Z,99.99
2022-10-26T05:02:35.015Z,99.99
2022-10-26T05:03:34.954Z,99.99
2022-10-26T05:04:34.961Z,99.99
2022-10-26T05:05:34.957Z,99.99
2022-10-26T05:06:34.944Z,99.99
2022-10-26T05:07:34.926Z,99.99
2022-10-26T05:08:34.899Z,99.99
2022-10-26T05:09:34.856Z,99.99
2022-10-26T05:10:34.858Z,99.99
2022-10-26T05:11:34.903Z,99.99
2022-10-26T05:12:34.827Z,99.99
2022-10-26T05:13:34.821Z,99.99
2022-10-26T05:14:34.808Z,99.99
2022-10-26T05:15:34.796Z,99.99
2022-10-26T05:16:34.797Z,99.99
2022-10-26T05:17:34.747Z,99.99
2022-10-26T05:18:34.722Z,99.99
2022-10-26T05:19:34.766Z,99.99
2022-10-26T05:20:34.716Z,99.99
2022-10-26T05:21:34.771Z,99.99
2022-10-26T05:22:34.685Z,99.99
2022-10-26T05:23:34.659Z,99.99
2022-10-26T05:24:34.656Z,99.99
2022-10-26T05:25:34.645Z,99.99
2022-10-26T05:26:34.636Z,99.99
2022-10-26T05:27:34.611Z,99.99
2022-10-26T05:28:34.586Z,99.99
2022-10-26T05:29:34.632Z,99.99
2022-10-26T05:30:34.549Z,99.99
2022-10-26T05:31:34.541Z,97.34
2022-10-26T05:32:34.562Z,95.32
2022-10-26T05:33:34.530Z,94.26
2022-10-26T05:34:37.211Z,92.84
2022-10-26T05:35:35.541Z,92.09
2022-10-26T05:36:34.500Z,90.93
2022-10-26T05:37:34.489Z,90.32
2022-10-26T05:38:34.488Z,89.92
2022-10-26T05:39:34.468Z,90.22
2022-10-26T05:40:34.405Z,90.22
2022-10-26T05:41:34.427Z,90.42
2022-10-26T05:42:34.382Z,90.02
2022-10-26T05:43:34.397Z,88.96
2022-10-26T05:44:34.392Z,88.66
2022-10-26T05:45:34.340Z,89.06
2022-10-26T05:46:34.327Z,88.56
2022-10-26T05:47:34.333Z,88.46
2022-10-26T05:48:34.341Z,88.86
2022-10-26T05:49:34.304Z,88.76
2022-10-26T05:50:34.344Z,88.96
2022-10-26T05:51:34.307Z,88.35
2022-10-26T05:52:34.246Z,87.65
2022-10-26T05:53:34.248Z,87.74
2022-10-26T05:54:34.260Z,87.34
2022-10-26T05:55:34.237Z,87.00
2022-10-26T05:56:34.184Z,86.69
2022-10-26T05:57:34.189Z,87.10
2022-10-26T05:58:34.254Z,86.19
2022-10-26T05:59:34.171Z,85.99
2022-10-26T06:00:34.185Z,86.29
2022-10-26T06:01:34.337Z,86.39
2022-10-26T06:02:34.209Z,87.00
2022-10-26T06:03:34.151Z,85.99
2022-10-26T06:04:34.107Z,85.99
2022-10-26T06:05:34.094Z,86.39
2022-10-26T06:06:34.059Z,86.39
2022-10-26T06:07:34.073Z,86.59
2022-10-26T06:08:34.021Z,86.69
2022-10-26T06:09:34.027Z,86.59
2022-10-26T06:10:34.007Z,86.94
2022-10-26T06:11:34.011Z,87.10
2022-10-26T06:12:33.978Z,86.83
2022-10-26T06:13:33.970Z,87.24
2022-10-26T06:14:33.961Z,87.34
2022-10-26T06:15:33.927Z,86.94
2022-10-26T06:16:33.931Z,86.83
2022-10-26T06:17:33.935Z,86.83
2022-10-26T06:18:33.905Z,86.94
2022-10-26T06:19:33.883Z,87.00
2022-10-26T06:20:33.915Z,87.04
2022-10-26T06:21:33.876Z,86.22
2022-10-26T06:22:33.867Z,85.58
2022-10-26T06:23:33.843Z,85.99
2022-10-26T06:24:33.826Z,85.99
2022-10-26T06:25:33.821Z,86.29
2022-10-26T06:26:33.784Z,86.08
2022-10-26T06:27:33.789Z,86.08
2022-10-26T06:28:33.880Z,85.38
2022-10-26T06:29:33.776Z,85.78
2022-10-26T06:30:33.730Z,85.99
2022-10-26T06:31:33.728Z,86.08
2022-10-26T06:32:33.748Z,86.90
2022-10-26T06:33:33.870Z,86.94
2022-10-26T06:34:33.679Z,87.45
2022-10-26T06:35:33.677Z,87.34
2022-10-26T06:36:33.670Z,87.45
2022-10-26T06:37:33.675Z,88.25
2022-10-26T06:38:33.632Z,88.90
2022-10-26T06:39:33.601Z,89.31
2022-10-26T06:40:33.601Z,90.02
2022-10-26T06:41:33.632Z,90.62
2022-10-26T06:42:33.613Z,90.67
2022-10-26T06:43:33.570Z,91.28
2022-10-26T06:44:33.533Z,91.08
2022-10-26T06:45:33.531Z,91.58
2022-10-26T06:46:33.536Z,92.70
2022-10-26T06:47:33.540Z,92.33
2022-10-26T06:48:33.474Z,92.13
2022-10-26T06:49:33.483Z,92.54
2022-10-26T06:50:33.500Z,92.84
2022-10-26T06:51:33.453Z,93.05
2022-10-26T06:52:42.159Z,93.40
2022-10-26T06:53:33.488Z,93.70
2022-10-26T06:54:33.398Z,94.21
2022-10-26T06:55:33.401Z,94.21
2022-10-26T06:56:33.398Z,93.90
2022-10-26T06:57:33.426Z,91.93
2022-10-26T06:58:33.369Z,91.63
2022-10-26T06:59:33.346Z,89.96
2022-10-26T07:00:33.321Z,89.15
2022-10-26T07:01:33.435Z,89.11
2022-10-26T07:02:33.389Z,88.20
2022-10-26T07:03:33.295Z,87.85
2022-10-26T07:04:33.285Z,87.65
2022-10-26T07:05:33.266Z,85.48
2022-10-26T07:06:35.534Z,84.87
2022-10-26T07:07:34.276Z,83.11
2022-10-26T07:08:33.210Z,82.16
2022-10-26T07:09:33.222Z,82.67
2022-10-26T07:10:33.192Z,82.97
2022-10-26T07:11:33.159Z,82.16
2022-10-26T07:12:33.314Z,81.76
2022-10-26T07:13:33.195Z,82.12
2022-10-26T07:14:33.144Z,80.80
2022-10-26T07:15:33.123Z,80.71
2022-10-26T07:16:33.104Z,80.66
2022-10-26T07:17:33.106Z,81.17
2022-10-26T07:18:33.093Z,81.31
2022-10-26T07:19:33.093Z,81.82
2022-10-26T07:20:33.036Z,81.51
2022-10-26T07:21:33.053Z,81.41
2022-10-26T07:22:33.008Z,80.80
2022-10-26T07:23:33.071Z,81.62
2022-10-26T07:24:33.003Z,81.82
2022-10-26T07:25:33.016Z,81.51
2022-10-26T07:26:32.998Z,81.41
2022-10-26T07:27:32.949Z,81.51
2022-10-26T07:28:32.952Z,81.51
2022-10-26T07:29:32.940Z,82.22
2022-10-26T07:30:41.652Z,83.03
2022-10-26T07:31:32.909Z,82.53
2022-10-26T07:32:32.889Z,82.62
2022-10-26T07:33:35.784Z,82.42
2022-10-26T07:34:33.960Z,82.62
2022-10-26T07:35:32.845Z,81.71
2022-10-26T07:36:32.899Z,81.41
2022-10-26T07:37:32.841Z,81.07
2022-10-26T07:38:32.838Z,81.68
2022-10-26T07:39:32.853Z,81.78
2022-10-26T07:40:32.773Z,82.18
2022-10-26T07:41:32.794Z,82.39
2022-10-26T07:42:32.779Z,81.57
2022-10-26T07:43:32.766Z,81.07
2022-10-26T07:44:32.732Z,82.08
2022-10-26T07:45:32.749Z,82.18
2022-10-26T07:46:32.724Z,82.39
2022-10-26T07:47:32.682Z,83.29
2022-10-26T07:48:32.751Z,82.99
2022-10-26T07:49:36.215Z,82.59
2022-10-26T07:50:32.659Z,83.40
2022-10-26T07:51:32.643Z,84.04
2022-10-26T07:52:32.647Z,84.14
2022-10-26T07:53:32.621Z,83.84
2022-10-26T07:54:32.604Z,83.03
2022-10-26T07:55:32.577Z,83.64
2022-10-26T07:56:32.563Z,83.50
2022-10-26T07:57:32.550Z,83.60
2022-10-26T07:58:32.602Z,83.50
2022-10-26T07:59:32.525Z,83.19
2022-10-26T08:00:32.547Z,83.26
2022-10-26T08:01:32.670Z,83.15
2022-10-26T08:02:32.487Z,82.61
2022-10-26T08:03:32.479Z,81.30
2022-10-26T08:04:32.458Z,81.10
2022-10-26T08:06:32.415Z,81.30
2022-10-26T08:07:32.433Z,81.20
2022-10-26T08:08:32.409Z,81.30
2022-10-26T08:09:32.431Z,82.21
2022-10-26T08:10:32.428Z,81.84
2022-10-26T08:11:43.562Z,82.24
2022-10-26T08:12:32.416Z,82.55
2022-10-26T08:13:32.357Z,82.35
2022-10-26T08:14:32.312Z,82.35
2022-10-26T08:15:32.419Z,82.45
2022-10-26T08:16:32.355Z,83.80
2022-10-26T08:17:32.406Z,83.26
2022-10-26T08:18:32.273Z,83.05
2022-10-26T08:19:32.283Z,82.95
2022-10-26T08:20:32.259Z,82.41
2022-10-26T08:21:40.436Z,80.96
2022-10-26T08:22:33.222Z,81.76
2022-10-26T08:23:32.357Z,81.87
2022-10-26T08:24:32.208Z,81.67
2022-10-26T08:25:32.188Z,81.87
2022-10-26T08:26:32.171Z,82.98
2022-10-26T08:27:32.196Z,82.78
2022-10-26T08:28:32.165Z,80.96
2022-10-26T08:29:32.142Z,82.07
2022-10-26T08:30:32.178Z,81.12
2022-10-26T08:31:32.154Z,81.52
2022-10-26T08:32:32.096Z,80.27
2022-10-26T08:33:32.069Z,79.87
2022-10-26T08:34:32.068Z,79.97
2022-10-26T08:35:32.072Z,80.07
2022-10-26T08:36:32.055Z,80.38
2022-10-26T08:37:32.044Z,80.47
2022-10-26T08:38:32.106Z,81.08
2022-10-26T08:39:32.045Z,79.87
2022-10-26T08:40:32.023Z,80.07
2022-10-26T08:41:32.035Z,80.88
2022-10-26T08:42:32.007Z,79.47
2022-10-26T08:43:31.924Z,80.07
2022-10-26T08:44:31.952Z,80.07
2022-10-26T08:45:36.664Z,80.68
2022-10-26T08:46:32.871Z,80.58
2022-10-26T08:47:31.862Z,79.06
2022-10-26T08:48:31.950Z,80.38
2022-10-26T08:49:31.870Z,80.98
2022-10-26T08:50:31.892Z,80.38
2022-10-26T08:51:31.859Z,79.57
2022-10-26T08:52:31.893Z,79.06
2022-10-26T08:53:31.802Z,80.04
2022-10-26T08:54:31.845Z,78.52
2022-10-26T08:55:39.423Z,79.13
2022-10-26T08:56:31.739Z,79.13
2022-10-26T08:57:31.731Z,79.43
2022-10-26T08:58:31.707Z,80.24
2022-10-26T08:59:31.691Z,79.63
2022-10-26T09:00:31.720Z,80.04
2022-10-26T09:01:31.757Z,78.76
2022-10-26T09:02:31.672Z,79.73
2022-10-26T09:03:33.617Z,79.13
2022-10-26T09:04:31.642Z,79.83
2022-10-26T09:05:34.690Z,78.63
2022-10-26T09:06:32.633Z,79.73
2022-10-26T09:07:31.578Z,79.33
2022-10-26T09:08:31.581Z,80.44
2022-10-26T09:09:31.581Z,79.03
2022-10-26T09:10:31.551Z,78.83
2022-10-26T09:11:31.558Z,78.52
2022-10-26T09:12:31.531Z,78.83
2022-10-26T09:13:31.502Z,79.60
2022-10-26T09:14:31.486Z,79.29
2022-10-26T09:15:31.470Z,80.10
2022-10-26T09:16:31.475Z,80.70
2022-10-26T09:17:31.538Z,79.69
2022-10-26T09:18:31.438Z,79.05
2022-10-26T09:19:31.411Z,79.56
2022-10-26T09:20:31.419Z,77.84
2022-10-26T09:21:31.379Z,78.65
2022-10-26T09:22:31.380Z,79.46
2022-10-26T09:23:31.372Z,79.56
2022-10-26T09:24:31.340Z,79.56
2022-10-26T09:25:31.350Z,79.96
2022-10-26T09:26:31.315Z,80.06
2022-10-26T09:27:31.313Z,80.97
2022-10-26T09:28:31.308Z,78.89
2022-10-26T09:29:31.273Z,78.79
2022-10-26T09:30:31.312Z,79.09
2022-10-26T09:31:31.262Z,80.10
2022-10-26T09:32:31.271Z,80.50
2022-10-26T09:33:31.222Z,81.30
2022-10-26T09:34:31.224Z,80.60
2022-10-26T09:35:31.206Z,81.41
2022-10-26T09:36:31.188Z,80.80
2022-10-26T09:37:31.183Z,81.01
2022-10-26T09:38:31.166Z,80.66
2022-10-26T09:39:31.156Z,80.97
2022-10-26T09:40:31.138Z,80.87
2022-10-26T09:41:32.192Z,81.27
2022-10-26T09:42:31.097Z,81.07
2022-10-26T09:43:31.115Z,80.16
2022-10-26T09:44:31.121Z,80.90
2022-10-26T09:45:31.064Z,81.30
2022-10-26T09:46:31.051Z,82.11
2022-10-26T09:47:31.061Z,82.11
2022-10-26T09:48:31.037Z,81.41
2022-10-26T09:49:31.039Z,81.10
2022-10-26T09:50:31.009Z,80.36
2022-10-26T09:51:30.979Z,80.26
2022-10-26T09:52:30.972Z,80.36
2022-10-26T09:53:30.966Z,80.57
2022-10-26T09:54:30.967Z,80.77
2022-10-26T09:55:30.942Z,79.36
2022-10-26T09:56:30.958Z,79.69
2022-10-26T09:57:30.894Z,80.00
2022-10-26T09:58:30.902Z,80.00
2022-10-26T09:59:30.873Z,80.50
2022-10-26T10:00:30.949Z,80.40
2022-10-26T10:01:30.894Z,80.40
2022-10-26T10:02:30.875Z,81.07
2022-10-26T10:03:30.823Z,80.87
2022-10-26T10:04:30.830Z,81.47
2022-10-26T10:05:51.249Z,80.43
2022-10-26T10:06:31.826Z,79.92
2022-10-26T10:07:30.761Z,80.73
2022-10-26T10:08:30.777Z,80.63
2022-10-26T10:09:30.785Z,79.72
2022-10-26T10:10:30.746Z,79.88
2022-10-26T10:11:30.706Z,78.98
2022-10-26T10:12:30.704Z,77.97
2022-10-26T10:13:30.704Z,79.68
2022-10-26T10:14:32.601Z,79.38
2022-10-26T10:15:30.675Z,77.87
2022-10-26T10:16:30.664Z,77.87
2022-10-26T10:17:30.632Z,78.58
2022-10-26T10:18:30.634Z,78.27
2022-10-26T10:19:30.651Z,79.18
2022-10-26T10:20:30.628Z,79.85
2022-10-26T10:21:30.606Z,77.33
2022-10-26T10:22:30.585Z,77.20
2022-10-26T10:23:30.544Z,77.29
2022-10-26T10:24:30.585Z,76.79
2022-10-26T10:25:30.585Z,76.49
2022-10-26T10:26:30.502Z,77.70
2022-10-26T10:27:30.492Z,78.40
2022-10-26T10:28:30.517Z,78.30
2022-10-26T10:29:30.476Z,77.50
2022-10-26T10:30:30.518Z,79.21
2022-10-26T10:31:30.448Z,78.30
2022-10-26T10:32:30.423Z,78.77
2022-10-26T10:33:30.425Z,77.90
2022-10-26T10:34:30.417Z,79.27
2022-10-26T10:35:30.407Z,78.06
2022-10-26T10:36:30.403Z,78.33
2022-10-26T10:37:30.370Z,77.52
2022-10-26T10:38:30.349Z,77.96
2022-10-26T10:39:30.358Z,77.46
2022-10-26T10:40:30.317Z,77.09
2022-10-26T10:41:30.327Z,75.17
2022-10-26T10:42:30.296Z,74.20
2022-10-26T10:43:30.290Z,72.50
2022-10-26T10:44:30.269Z,73.23
2022-10-26T10:45:30.243Z,73.03
2022-10-26T10:46:30.246Z,73.86
2022-10-26T10:47:30.267Z,74.90
2022-10-26T10:48:31.690Z,75.54
2022-10-26T10:49:30.197Z,76.65
2022-10-26T10:50:30.184Z,76.38
2022-10-26T10:51:30.161Z,76.89
2022-10-26T10:52:30.175Z,77.42
2022-10-26T10:53:30.126Z,77.83
2022-10-26T10:54:30.140Z,78.12
2022-10-26T10:55:30.108Z,78.53
2022-10-26T10:56:30.096Z,79.17
2022-10-26T10:57:30.087Z,79.53
2022-10-26T10:58:30.101Z,77.92
2022-10-26T10:59:30.063Z,78.22
2022-10-26T11:00:30.045Z,78.53
2022-10-26T11:01:30.123Z,77.92
2022-10-26T11:02:30.073Z,78.03
2022-10-26T11:03:29.996Z,78.77
2022-10-26T11:04:30.016Z,79.06
2022-10-26T11:05:29.967Z,78.46
2022-10-26T11:06:29.959Z,79.06
2022-10-26T11:07:29.930Z,78.97
2022-10-26T11:08:29.938Z,79.17
2022-10-26T11:09:29.930Z,79.77
2022-10-26T11:10:29.940Z,80.47
2022-10-26T11:11:29.899Z,80.37
2022-10-26T11:12:29.923Z,79.47
2022-10-26T11:13:29.882Z,80.07
2022-10-26T11:14:29.853Z,80.07
2022-10-26T11:15:29.832Z,78.93
2022-10-26T11:16:29.843Z,79.60
2022-10-26T11:17:29.822Z,79.69
2022-10-26T11:18:29.812Z,79.03
2022-10-26T11:19:29.815Z,79.83
2022-10-26T11:20:29.773Z,79.13
2022-10-26T11:21:29.775Z,78.63
2022-10-26T11:22:29.734Z,79.33
2022-10-26T11:23:29.737Z,79.13
2022-10-26T11:24:29.715Z,79.06
2022-10-26T11:25:29.703Z,79.67
2022-10-26T11:26:29.698Z,79.47
2022-10-26T11:27:29.704Z,79.77
2022-10-26T11:28:29.687Z,80.37
2022-10-26T11:29:31.746Z,80.77
2022-10-26T11:30:29.625Z,79.43
2022-10-26T11:31:29.640Z,80.04
2022-10-26T11:32:29.616Z,79.73
2022-10-26T11:33:29.611Z,80.33
2022-10-26T11:34:29.619Z,80.33
2022-10-26T11:35:29.561Z,80.63
2022-10-26T11:36:29.613Z,80.70
2022-10-26T11:37:29.595Z,81.30
2022-10-26T11:38:39.336Z,81.30
2022-10-26T11:39:30.527Z,79.60
2022-10-26T11:40:29.498Z,79.99
2022-10-26T11:41:29.510Z,79.19
2022-10-26T11:42:29.485Z,79.60
2022-10-26T11:43:29.472Z,79.90
2022-10-26T11:44:29.478Z,79.80
2022-10-26T11:45:29.452Z,79.90
2022-10-26T11:46:29.416Z,80.10
2022-10-26T11:47:29.403Z,80.50
2022-10-26T11:48:29.398Z,80.70
2022-10-26T11:49:29.364Z,80.80
2022-10-26T11:50:29.385Z,80.70
2022-10-26T11:51:29.358Z,80.90
2022-10-26T11:52:29.368Z,79.29
2022-10-26T11:53:29.327Z,79.96
2022-10-26T11:54:29.305Z,80.66
2022-10-26T11:55:29.311Z,79.75
2022-10-26T11:56:29.314Z,80.12
2022-10-26T11:57:29.269Z,80.32
2022-10-26T11:58:29.260Z,79.52
2022-10-26T11:59:32.383Z,79.48
2022-10-26T12:00:29.239Z,77.78
2022-10-26T12:01:29.259Z,78.38
2022-10-26T12:02:29.304Z,78.28
2022-10-26T12:03:29.192Z,78.08
2022-10-26T12:04:29.171Z,78.08
2022-10-26T12:05:29.152Z,78.48
2022-10-26T12:06:33.210Z,79.02
2022-10-26T12:07:29.147Z,78.22
2022-10-26T12:08:29.122Z,77.41
2022-10-26T12:09:32.103Z,77.51
2022-10-26T12:10:30.104Z,77.81
2022-10-26T12:11:29.079Z,77.41
2022-10-26T12:12:31.571Z,78.18
2022-10-26T12:13:29.062Z,77.87
2022-10-26T12:14:29.047Z,77.37
2022-10-26T12:15:35.347Z,77.67
2022-10-26T12:16:30.009Z,78.11
2022-10-26T12:17:28.985Z,78.02
2022-10-26T12:18:50.406Z,77.61
2022-10-26T12:19:29.973Z,78.02
2022-10-26T12:20:29.003Z,78.72
2022-10-26T12:21:29.027Z,78.72
2022-10-26T12:22:28.931Z,78.22
2022-10-26T12:23:40.476Z,78.61
2022-10-26T12:24:29.915Z,79.42
2022-10-26T12:25:28.887Z,78.31
2022-10-26T12:26:28.890Z,79.42
2022-10-26T12:27:28.857Z,78.72
2022-10-26T12:28:28.845Z,79.62
2022-10-26T12:29:28.831Z,78.98
2022-10-26T12:30:28.840Z,77.98
2022-10-26T12:32:28.790Z,78.48
2022-10-26T12:33:28.771Z,77.37
2022-10-26T12:34:28.786Z,78.28
2022-10-26T12:35:28.743Z,77.98
2022-10-26T12:36:28.754Z,78.28
2022-10-26T12:37:28.762Z,78.18
2022-10-26T12:38:30.441Z,77.37
2022-10-26T12:39:28.684Z,77.48
2022-10-26T12:40:28.748Z,77.87
2022-10-26T12:41:28.653Z,77.87
2022-10-26T12:42:28.673Z,78.18
2022-10-26T12:43:28.655Z,78.81
2022-10-26T12:44:28.632Z,77.81
2022-10-26T12:45:28.618Z,78.11
2022-10-26T12:46:28.627Z,78.22
2022-10-26T12:47:28.600Z,78.31
2022-10-26T12:48:38.861Z,78.61
2022-10-26T12:49:29.604Z,78.81
2022-10-26T12:50:28.554Z,79.52
2022-10-26T12:51:28.568Z,79.32
2022-10-26T12:52:28.554Z,79.42
2022-10-26T12:53:28.585Z,78.72
2022-10-26T12:54:28.544Z,78.61
2022-10-26T12:55:28.494Z,78.22
2022-10-26T12:56:28.528Z,79.02
2022-10-26T12:57:28.483Z,78.61
2022-10-26T12:58:28.452Z,79.12
2022-10-26T12:59:28.482Z,78.18
2022-10-26T13:00:28.530Z,78.18